sensor_id;sensor_type;location;lat;lon;timestamp;P1;durP1;ratioP1;P2;durP2;ratioP2
77010;SDS011;65945;53.148;17.956;2023-08-21T00:01:57;11.70;;;9.00;;
77010;SDS011;65945;53.148;17.956;2023-08-21T00:04:25;13.20;;;9.30;;
77010;SDS011;65945;53.148;17.956;2023-08-21T00:06:51;13.20;;;9.60;;
77010;SDS011;65945;53.148;17.956;2023-08-21T00:09:18;11.70;;;9.20;;
77010;SDS011;65945;53.148;17.956;2023-08-21T00:11:45;11.60;;;9.10;;
77010;SDS011;65945;53.148;17.956;2023-08-21T00:14:11;11.80;;;9.10;;
77010;SDS011;65945;53.148;17.956;2023-08-21T00:16:38;13.10;;;9.80;;
77010;SDS011;65945;53.148;17.956;2023-08-21T00:19:04;13.60;;;9.80;;
77010;SDS011;65945;53.148;17.956;2023-08-21T00:21:31;12.50;;;9.50;;
77010;SDS011;65945;53.148;17.956;2023-08-21T00:23:57;12.80;;;9.80;;
77010;SDS011;65945;53.148;17.956;2023-08-21T00:26:24;14.40;;;9.40;;
77010;SDS011;65945;53.148;17.956;2023-08-21T00:28:51;12.70;;;9.80;;
77010;SDS011;65945;53.148;17.956;2023-08-21T00:31:17;15.20;;;10.00;;
77010;SDS011;65945;53.148;17.956;2023-08-21T00:33:44;15.00;;;9.90;;
77010;SDS011;65945;53.148;17.956;2023-08-21T00:36:10;15.20;;;9.50;;
77010;SDS011;65945;53.148;17.956;2023-08-21T00:38:37;12.90;;;9.80;;
77010;SDS011;65945;53.148;17.956;2023-08-21T00:41:04;13.60;;;9.90;;
77010;SDS011;65945;53.148;17.956;2023-08-21T00:43:32;12.30;;;9.80;;
77010;SDS011;65945;53.148;17.956;2023-08-21T00:45:59;11.40;;;9.40;;
77010;SDS011;65945;53.148;17.956;2023-08-21T00:48:25;13.50;;;9.90;;
77010;SDS011;65945;53.148;17.956;2023-08-21T00:50:52;17.90;;;10.20;;
77010;SDS011;65945;53.148;17.956;2023-08-21T00:53:19;12.00;;;9.30;;
77010;SDS011;65945;53.148;17.956;2023-08-21T00:55:46;13.50;;;10.20;;
77010;SDS011;65945;53.148;17.956;2023-08-21T00:58:13;36.20;;;10.30;;
77010;SDS011;65945;53.148;17.956;2023-08-21T01:00:41;14.50;;;9.80;;
77010;SDS011;65945;53.148;17.956;2023-08-21T01:03:08;13.40;;;9.90;;
77010;SDS011;65945;53.148;17.956;2023-08-21T01:05:35;13.30;;;9.90;;
77010;SDS011;65945;53.148;17.956;2023-08-21T01:08:03;12.90;;;9.70;;
77010;SDS011;65945;53.148;17.956;2023-08-21T01:16:10;14.20;;;10.30;;
77010;SDS011;65945;53.148;17.956;2023-08-21T01:18:40;14.60;;;10.10;;
77010;SDS011;65945;53.148;17.956;2023-08-21T01:21:07;12.70;;;9.70;;
77010;SDS011;65945;53.148;17.956;2023-08-21T01:23:34;15.30;;;10.30;;
77010;SDS011;65945;53.148;17.956;2023-08-21T01:26:02;13.70;;;10.20;;
77010;SDS011;65945;53.148;17.956;2023-08-21T01:28:31;19.40;;;10.40;;
77010;SDS011;65945;53.148;17.956;2023-08-21T01:33:58;17.20;;;9.70;;
77010;SDS011;65945;53.148;17.956;2023-08-21T01:36:31;13.70;;;9.90;;
77010;SDS011;65945;53.148;17.956;2023-08-21T01:38:58;13.10;;;9.90;;
77010;SDS011;65945;53.148;17.956;2023-08-21T01:41:25;12.80;;;10.40;;
77010;SDS011;65945;53.148;17.956;2023-08-21T01:43:51;15.60;;;10.10;;
77010;SDS011;65945;53.148;17.956;2023-08-21T01:46:18;12.90;;;9.80;;
77010;SDS011;65945;53.148;17.956;2023-08-21T01:48:45;14.20;;;9.50;;
77010;SDS011;65945;53.148;17.956;2023-08-21T01:51:11;13.70;;;9.30;;
77010;SDS011;65945;53.148;17.956;2023-08-21T01:53:38;16.70;;;9.40;;
77010;SDS011;65945;53.148;17.956;2023-08-21T01:56:04;15.80;;;9.60;;
77010;SDS011;65945;53.148;17.956;2023-08-21T01:58:32;15.80;;;9.70;;
77010;SDS011;65945;53.148;17.956;2023-08-21T02:00:59;14.00;;;9.80;;
77010;SDS011;65945;53.148;17.956;2023-08-21T02:03:26;14.50;;;10.70;;
77010;SDS011;65945;53.148;17.956;2023-08-21T02:05:55;14.90;;;9.70;;
77010;SDS011;65945;53.148;17.956;2023-08-21T02:08:27;12.70;;;9.40;;
77010;SDS011;65945;53.148;17.956;2023-08-21T02:11:00;14.80;;;9.20;;
77010;SDS011;65945;53.148;17.956;2023-08-21T02:13:27;13.20;;;9.40;;
77010;SDS011;65945;53.148;17.956;2023-08-21T02:15:54;12.20;;;9.60;;
77010;SDS011;65945;53.148;17.956;2023-08-21T02:18:21;13.60;;;9.50;;
77010;SDS011;65945;53.148;17.956;2023-08-21T02:20:47;15.30;;;9.50;;
77010;SDS011;65945;53.148;17.956;2023-08-21T02:23:15;11.80;;;8.90;;
77010;SDS011;65945;53.148;17.956;2023-08-21T02:25:42;13.90;;;9.20;;
77010;SDS011;65945;53.148;17.956;2023-08-21T02:28:10;13.10;;;8.30;;
77010;SDS011;65945;53.148;17.956;2023-08-21T02:30:40;12.60;;;8.70;;
77010;SDS011;65945;53.148;17.956;2023-08-21T02:33:07;13.30;;;8.30;;
77010;SDS011;65945;53.148;17.956;2023-08-21T02:35:34;14.60;;;9.30;;
77010;SDS011;65945;53.148;17.956;2023-08-21T02:38:02;12.60;;;8.90;;
77010;SDS011;65945;53.148;17.956;2023-08-21T02:40:28;13.20;;;9.30;;
77010;SDS011;65945;53.148;17.956;2023-08-21T02:42:55;14.90;;;9.30;;
77010;SDS011;65945;53.148;17.956;2023-08-21T02:45:22;13.80;;;9.10;;
77010;SDS011;65945;53.148;17.956;2023-08-21T02:47:48;13.60;;;9.00;;
77010;SDS011;65945;53.148;17.956;2023-08-21T02:50:15;13.50;;;9.10;;
77010;SDS011;65945;53.148;17.956;2023-08-21T02:52:41;15.10;;;9.10;;
77010;SDS011;65945;53.148;17.956;2023-08-21T02:55:08;12.90;;;8.60;;
77010;SDS011;65945;53.148;17.956;2023-08-21T02:57:35;13.50;;;8.50;;
77010;SDS011;65945;53.148;17.956;2023-08-21T03:00:01;11.40;;;8.00;;
77010;SDS011;65945;53.148;17.956;2023-08-21T03:02:29;12.40;;;8.90;;
77010;SDS011;65945;53.148;17.956;2023-08-21T03:04:55;15.60;;;8.80;;
77010;SDS011;65945;53.148;17.956;2023-08-21T03:07:22;13.30;;;9.10;;
77010;SDS011;65945;53.148;17.956;2023-08-21T03:09:49;13.30;;;8.30;;
77010;SDS011;65945;53.148;17.956;2023-08-21T03:12:16;15.00;;;9.00;;
77010;SDS011;65945;53.148;17.956;2023-08-21T03:14:45;12.70;;;8.90;;
77010;SDS011;65945;53.148;17.956;2023-08-21T03:17:12;12.40;;;7.90;;
77010;SDS011;65945;53.148;17.956;2023-08-21T03:19:39;13.00;;;8.10;;
77010;SDS011;65945;53.148;17.956;2023-08-21T03:22:05;11.80;;;7.40;;
77010;SDS011;65945;53.148;17.956;2023-08-21T03:24:32;11.40;;;7.70;;
77010;SDS011;65945;53.148;17.956;2023-08-21T03:26:59;12.20;;;7.50;;
77010;SDS011;65945;53.148;17.956;2023-08-21T03:29:25;14.20;;;7.40;;
77010;SDS011;65945;53.148;17.956;2023-08-21T03:31:53;15.50;;;8.20;;
77010;SDS011;65945;53.148;17.956;2023-08-21T03:34:23;11.50;;;7.10;;
77010;SDS011;65945;53.148;17.956;2023-08-21T03:36:51;14.50;;;7.40;;
77010;SDS011;65945;53.148;17.956;2023-08-21T03:39:18;14.60;;;7.50;;
77010;SDS011;65945;53.148;17.956;2023-08-21T03:41:46;13.60;;;7.30;;
77010;SDS011;65945;53.148;17.956;2023-08-21T03:44:12;11.70;;;7.40;;
77010;SDS011;65945;53.148;17.956;2023-08-21T03:46:39;11.80;;;7.10;;
77010;SDS011;65945;53.148;17.956;2023-08-21T03:49:05;13.00;;;7.70;;
77010;SDS011;65945;53.148;17.956;2023-08-21T03:51:32;12.30;;;6.70;;
77010;SDS011;65945;53.148;17.956;2023-08-21T03:53:59;14.20;;;6.40;;
77010;SDS011;65945;53.148;17.956;2023-08-21T03:56:26;11.10;;;7.00;;
77010;SDS011;65945;53.148;17.956;2023-08-21T03:58:54;12.40;;;7.50;;
77010;SDS011;65945;53.148;17.956;2023-08-21T04:01:20;12.70;;;7.40;;
77010;SDS011;65945;53.148;17.956;2023-08-21T04:03:47;12.90;;;6.80;;
77010;SDS011;65945;53.148;17.956;2023-08-21T04:06:14;16.30;;;7.10;;
77010;SDS011;65945;53.148;17.956;2023-08-21T04:08:40;13.60;;;6.90;;
77010;SDS011;65945;53.148;17.956;2023-08-21T04:11:07;14.30;;;7.00;;
77010;SDS011;65945;53.148;17.956;2023-08-21T04:13:34;11.60;;;6.80;;
77010;SDS011;65945;53.148;17.956;2023-08-21T04:16:01;12.50;;;7.00;;
77010;SDS011;65945;53.148;17.956;2023-08-21T04:18:27;11.80;;;6.90;;
77010;SDS011;65945;53.148;17.956;2023-08-21T04:20:54;14.20;;;7.80;;
77010;SDS011;65945;53.148;17.956;2023-08-21T04:23:21;14.60;;;7.00;;
77010;SDS011;65945;53.148;17.956;2023-08-21T04:25:47;10.30;;;6.90;;
77010;SDS011;65945;53.148;17.956;2023-08-21T04:28:14;15.20;;;7.60;;
77010;SDS011;65945;53.148;17.956;2023-08-21T04:30:40;16.10;;;7.60;;
77010;SDS011;65945;53.148;17.956;2023-08-21T04:33:10;12.40;;;6.90;;
77010;SDS011;65945;53.148;17.956;2023-08-21T04:35:37;10.50;;;6.60;;
77010;SDS011;65945;53.148;17.956;2023-08-21T04:38:05;11.40;;;7.00;;
77010;SDS011;65945;53.148;17.956;2023-08-21T04:40:33;11.00;;;6.70;;
77010;SDS011;65945;53.148;17.956;2023-08-21T04:43:01;12.20;;;6.30;;
77010;SDS011;65945;53.148;17.956;2023-08-21T04:45:27;10.80;;;6.20;;
77010;SDS011;65945;53.148;17.956;2023-08-21T04:47:54;27.50;;;8.00;;
77010;SDS011;65945;53.148;17.956;2023-08-21T04:50:21;13.70;;;7.40;;
77010;SDS011;65945;53.148;17.956;2023-08-21T04:52:49;12.20;;;6.20;;
77010;SDS011;65945;53.148;17.956;2023-08-21T04:55:16;13.60;;;6.60;;
77010;SDS011;65945;53.148;17.956;2023-08-21T04:57:43;8.50;;;6.00;;
77010;SDS011;65945;53.148;17.956;2023-08-21T05:00:10;10.40;;;6.30;;
77010;SDS011;65945;53.148;17.956;2023-08-21T05:02:39;12.30;;;5.80;;
77010;SDS011;65945;53.148;17.956;2023-08-21T05:05:06;11.40;;;5.80;;
77010;SDS011;65945;53.148;17.956;2023-08-21T05:07:33;10.60;;;5.90;;
77010;SDS011;65945;53.148;17.956;2023-08-21T05:10:01;10.00;;;5.30;;
77010;SDS011;65945;53.148;17.956;2023-08-21T05:12:29;11.30;;;5.50;;
77010;SDS011;65945;53.148;17.956;2023-08-21T05:14:56;12.00;;;5.50;;
77010;SDS011;65945;53.148;17.956;2023-08-21T05:17:24;8.60;;;4.80;;
77010;SDS011;65945;53.148;17.956;2023-08-21T05:19:52;10.70;;;5.50;;
77010;SDS011;65945;53.148;17.956;2023-08-21T05:22:19;9.00;;;5.60;;
77010;SDS011;65945;53.148;17.956;2023-08-21T05:24:46;12.90;;;5.80;;
77010;SDS011;65945;53.148;17.956;2023-08-21T05:27:13;12.80;;;5.30;;
77010;SDS011;65945;53.148;17.956;2023-08-21T05:29:40;11.10;;;4.70;;
77010;SDS011;65945;53.148;17.956;2023-08-21T05:32:06;12.10;;;4.90;;
77010;SDS011;65945;53.148;17.956;2023-08-21T05:34:33;9.40;;;4.40;;
77010;SDS011;65945;53.148;17.956;2023-08-21T05:36:59;10.30;;;4.50;;
77010;SDS011;65945;53.148;17.956;2023-08-21T05:39:26;10.80;;;5.00;;
77010;SDS011;65945;53.148;17.956;2023-08-21T05:41:53;9.30;;;5.10;;
77010;SDS011;65945;53.148;17.956;2023-08-21T05:44:19;13.60;;;5.10;;
77010;SDS011;65945;53.148;17.956;2023-08-21T05:46:46;9.10;;;4.20;;
77010;SDS011;65945;53.148;17.956;2023-08-21T05:49:13;10.80;;;4.20;;
77010;SDS011;65945;53.148;17.956;2023-08-21T05:51:40;13.30;;;4.60;;
77010;SDS011;65945;53.148;17.956;2023-08-21T05:54:08;7.80;;;4.00;;
77010;SDS011;65945;53.148;17.956;2023-08-21T05:56:36;12.60;;;4.50;;
77010;SDS011;65945;53.148;17.956;2023-08-21T05:59:02;8.90;;;3.70;;
77010;SDS011;65945;53.148;17.956;2023-08-21T06:01:29;8.10;;;3.50;;
77010;SDS011;65945;53.148;17.956;2023-08-21T06:03:57;7.90;;;3.70;;
77010;SDS011;65945;53.148;17.956;2023-08-21T06:06:34;11.40;;;3.80;;
77010;SDS011;65945;53.148;17.956;2023-08-21T06:09:01;10.40;;;3.80;;
77010;SDS011;65945;53.148;17.956;2023-08-21T06:11:28;8.40;;;3.20;;
77010;SDS011;65945;53.148;17.956;2023-08-21T06:13:54;9.20;;;3.50;;
77010;SDS011;65945;53.148;17.956;2023-08-21T06:16:21;8.70;;;3.20;;
77010;SDS011;65945;53.148;17.956;2023-08-21T06:18:48;5.90;;;3.00;;
77010;SDS011;65945;53.148;17.956;2023-08-21T06:21:15;7.90;;;3.10;;
77010;SDS011;65945;53.148;17.956;2023-08-21T06:23:41;5.90;;;3.10;;
77010;SDS011;65945;53.148;17.956;2023-08-21T06:26:08;8.30;;;3.10;;
77010;SDS011;65945;53.148;17.956;2023-08-21T06:28:34;5.50;;;2.70;;
77010;SDS011;65945;53.148;17.956;2023-08-21T06:31:01;6.70;;;2.60;;
77010;SDS011;65945;53.148;17.956;2023-08-21T06:33:30;4.80;;;2.70;;
77010;SDS011;65945;53.148;17.956;2023-08-21T06:35:57;7.00;;;2.80;;
77010;SDS011;65945;53.148;17.956;2023-08-21T06:38:23;7.50;;;2.80;;
77010;SDS011;65945;53.148;17.956;2023-08-21T06:40:50;9.60;;;2.90;;
77010;SDS011;65945;53.148;17.956;2023-08-21T06:43:17;5.30;;;2.90;;
77010;SDS011;65945;53.148;17.956;2023-08-21T06:45:47;4.70;;;2.50;;
77010;SDS011;65945;53.148;17.956;2023-08-21T06:48:14;4.90;;;2.50;;
77010;SDS011;65945;53.148;17.956;2023-08-21T06:50:40;8.60;;;2.60;;
77010;SDS011;65945;53.148;17.956;2023-08-21T06:53:07;5.50;;;2.40;;
77010;SDS011;65945;53.148;17.956;2023-08-21T06:55:33;5.90;;;2.70;;
77010;SDS011;65945;53.148;17.956;2023-08-21T06:58:00;5.90;;;2.60;;
77010;SDS011;65945;53.148;17.956;2023-08-21T07:00:26;7.50;;;2.30;;
77010;SDS011;65945;53.148;17.956;2023-08-21T07:02:53;8.00;;;2.60;;
77010;SDS011;65945;53.148;17.956;2023-08-21T07:05:20;6.10;;;2.10;;
77010;SDS011;65945;53.148;17.956;2023-08-21T07:07:46;8.10;;;2.20;;
77010;SDS011;65945;53.148;17.956;2023-08-21T07:10:13;8.60;;;2.00;;
77010;SDS011;65945;53.148;17.956;2023-08-21T07:12:39;7.90;;;2.30;;
77010;SDS011;65945;53.148;17.956;2023-08-21T07:15:07;8.00;;;2.60;;
77010;SDS011;65945;53.148;17.956;2023-08-21T07:17:34;5.30;;;2.00;;
77010;SDS011;65945;53.148;17.956;2023-08-21T07:20:02;6.60;;;2.50;;
77010;SDS011;65945;53.148;17.956;2023-08-21T07:22:30;7.40;;;2.60;;
77010;SDS011;65945;53.148;17.956;2023-08-21T07:24:56;6.80;;;2.00;;
77010;SDS011;65945;53.148;17.956;2023-08-21T07:27:23;4.30;;;2.10;;
77010;SDS011;65945;53.148;17.956;2023-08-21T07:29:49;6.70;;;1.90;;
77010;SDS011;65945;53.148;17.956;2023-08-21T07:32:16;7.70;;;2.00;;
77010;SDS011;65945;53.148;17.956;2023-08-21T07:34:43;6.40;;;1.80;;
77010;SDS011;65945;53.148;17.956;2023-08-21T07:37:10;4.60;;;1.70;;
77010;SDS011;65945;53.148;17.956;2023-08-21T07:39:36;5.10;;;1.80;;
77010;SDS011;65945;53.148;17.956;2023-08-21T07:42:03;3.90;;;1.50;;
77010;SDS011;65945;53.148;17.956;2023-08-21T07:44:29;5.80;;;1.80;;
77010;SDS011;65945;53.148;17.956;2023-08-21T07:46:56;6.40;;;2.10;;
77010;SDS011;65945;53.148;17.956;2023-08-21T07:49:23;3.60;;;1.50;;
77010;SDS011;65945;53.148;17.956;2023-08-21T07:51:49;6.70;;;1.70;;
77010;SDS011;65945;53.148;17.956;2023-08-21T07:54:16;8.00;;;2.20;;
77010;SDS011;65945;53.148;17.956;2023-08-21T07:56:42;10.70;;;2.00;;
77010;SDS011;65945;53.148;17.956;2023-08-21T07:59:09;4.00;;;1.70;;
77010;SDS011;65945;53.148;17.956;2023-08-21T08:01:36;9.40;;;1.90;;
77010;SDS011;65945;53.148;17.956;2023-08-21T08:04:02;6.30;;;2.20;;
77010;SDS011;65945;53.148;17.956;2023-08-21T08:06:29;7.70;;;1.70;;
77010;SDS011;65945;53.148;17.956;2023-08-21T08:08:56;12.10;;;2.00;;
77010;SDS011;65945;53.148;17.956;2023-08-21T08:11:22;5.50;;;1.90;;
77010;SDS011;65945;53.148;17.956;2023-08-21T08:13:49;12.90;;;1.90;;
77010;SDS011;65945;53.148;17.956;2023-08-21T08:16:16;8.80;;;1.30;;
77010;SDS011;65945;53.148;17.956;2023-08-21T08:18:43;6.20;;;1.40;;
77010;SDS011;65945;53.148;17.956;2023-08-21T08:21:09;5.50;;;1.60;;
77010;SDS011;65945;53.148;17.956;2023-08-21T08:23:37;6.00;;;1.50;;
77010;SDS011;65945;53.148;17.956;2023-08-21T08:26:04;3.30;;;1.30;;
77010;SDS011;65945;53.148;17.956;2023-08-21T08:28:30;3.40;;;1.30;;
77010;SDS011;65945;53.148;17.956;2023-08-21T08:30:57;7.80;;;1.60;;
77010;SDS011;65945;53.148;17.956;2023-08-21T08:33:24;6.40;;;1.90;;
77010;SDS011;65945;53.148;17.956;2023-08-21T08:35:51;6.30;;;1.80;;
77010;SDS011;65945;53.148;17.956;2023-08-21T08:38:18;2.80;;;1.00;;
77010;SDS011;65945;53.148;17.956;2023-08-21T08:40:46;4.40;;;1.40;;
77010;SDS011;65945;53.148;17.956;2023-08-21T08:43:13;5.50;;;1.60;;
77010;SDS011;65945;53.148;17.956;2023-08-21T08:45:41;2.70;;;1.30;;
77010;SDS011;65945;53.148;17.956;2023-08-21T08:48:08;5.00;;;1.40;;
77010;SDS011;65945;53.148;17.956;2023-08-21T08:50:36;6.90;;;1.60;;
77010;SDS011;65945;53.148;17.956;2023-08-21T08:53:04;3.30;;;1.00;;
77010;SDS011;65945;53.148;17.956;2023-08-21T08:55:34;5.30;;;1.30;;
77010;SDS011;65945;53.148;17.956;2023-08-21T08:58:01;4.50;;;1.50;;
77010;SDS011;65945;53.148;17.956;2023-08-21T09:00:27;5.20;;;1.40;;
77010;SDS011;65945;53.148;17.956;2023-08-21T09:02:54;11.70;;;1.50;;
77010;SDS011;65945;53.148;17.956;2023-08-21T09:05:23;8.60;;;1.30;;
77010;SDS011;65945;53.148;17.956;2023-08-21T09:10:48;4.70;;;1.00;;
77010;SDS011;65945;53.148;17.956;2023-08-21T09:13:16;3.00;;;1.00;;
77010;SDS011;65945;53.148;17.956;2023-08-21T09:15:45;5.90;;;1.30;;
77010;SDS011;65945;53.148;17.956;2023-08-21T09:18:13;10.10;;;1.40;;
77010;SDS011;65945;53.148;17.956;2023-08-21T09:20:41;2.90;;;1.10;;
77010;SDS011;65945;53.148;17.956;2023-08-21T09:23:12;3.10;;;1.10;;
77010;SDS011;65945;53.148;17.956;2023-08-21T09:25:40;4.00;;;1.30;;
77010;SDS011;65945;53.148;17.956;2023-08-21T09:28:07;3.50;;;1.00;;
77010;SDS011;65945;53.148;17.956;2023-08-21T09:30:43;3.40;;;1.30;;
77010;SDS011;65945;53.148;17.956;2023-08-21T09:33:21;5.10;;;1.20;;
77010;SDS011;65945;53.148;17.956;2023-08-21T09:35:52;2.50;;;0.80;;
77010;SDS011;65945;53.148;17.956;2023-08-21T09:38:19;3.60;;;1.00;;
77010;SDS011;65945;53.148;17.956;2023-08-21T09:40:51;7.00;;;1.20;;
77010;SDS011;65945;53.148;17.956;2023-08-21T09:43:20;4.60;;;0.90;;
77010;SDS011;65945;53.148;17.956;2023-08-21T09:45:52;3.40;;;1.10;;
77010;SDS011;65945;53.148;17.956;2023-08-21T09:48:21;3.50;;;0.90;;
77010;SDS011;65945;53.148;17.956;2023-08-21T09:50:53;4.50;;;1.00;;
77010;SDS011;65945;53.148;17.956;2023-08-21T09:53:20;4.20;;;1.00;;
77010;SDS011;65945;53.148;17.956;2023-08-21T09:55:49;3.40;;;1.00;;
77010;SDS011;65945;53.148;17.956;2023-08-21T09:58:19;8.00;;;1.20;;
77010;SDS011;65945;53.148;17.956;2023-08-21T10:00:48;3.20;;;1.10;;
77010;SDS011;65945;53.148;17.956;2023-08-21T10:03:20;4.50;;;1.20;;
77010;SDS011;65945;53.148;17.956;2023-08-21T10:05:47;2.70;;;1.00;;
77010;SDS011;65945;53.148;17.956;2023-08-21T10:08:18;3.70;;;1.20;;
77010;SDS011;65945;53.148;17.956;2023-08-21T10:10:50;3.20;;;1.40;;
77010;SDS011;65945;53.148;17.956;2023-08-21T10:13:17;3.10;;;1.10;;
77010;SDS011;65945;53.148;17.956;2023-08-21T10:15:44;2.90;;;1.20;;
77010;SDS011;65945;53.148;17.956;2023-08-21T10:18:25;3.40;;;1.00;;
77010;SDS011;65945;53.148;17.956;2023-08-21T10:20:56;3.60;;;1.00;;
77010;SDS011;65945;53.148;17.956;2023-08-21T10:23:37;7.00;;;1.40;;
77010;SDS011;65945;53.148;17.956;2023-08-21T10:26:05;2.90;;;0.80;;
77010;SDS011;65945;53.148;17.956;2023-08-21T10:28:40;2.30;;;0.90;;
77010;SDS011;65945;53.148;17.956;2023-08-21T10:34:03;24.90;;;2.00;;
77010;SDS011;65945;53.148;17.956;2023-08-21T10:39:17;5.90;;;1.40;;
77010;SDS011;65945;53.148;17.956;2023-08-21T10:47:18;3.50;;;1.20;;
77010;SDS011;65945;53.148;17.956;2023-08-21T10:49:45;7.20;;;1.30;;
77010;SDS011;65945;53.148;17.956;2023-08-21T10:52:14;6.00;;;1.40;;
77010;SDS011;65945;53.148;17.956;2023-08-21T10:54:47;5.40;;;1.40;;
77010;SDS011;65945;53.148;17.956;2023-08-21T10:57:16;3.50;;;1.20;;
77010;SDS011;65945;53.148;17.956;2023-08-21T11:00:17;5.30;;;1.10;;
77010;SDS011;65945;53.148;17.956;2023-08-21T11:02:38;5.10;;;1.00;;
77010;SDS011;65945;53.148;17.956;2023-08-21T11:05:06;5.60;;;1.40;;
77010;SDS011;65945;53.148;17.956;2023-08-21T11:07:36;5.80;;;1.50;;
77010;SDS011;65945;53.148;17.956;2023-08-21T11:10:08;5.60;;;1.20;;
77010;SDS011;65945;53.148;17.956;2023-08-21T11:12:37;5.90;;;1.50;;
77010;SDS011;65945;53.148;17.956;2023-08-21T11:15:04;3.90;;;1.20;;
77010;SDS011;65945;53.148;17.956;2023-08-21T11:17:31;4.40;;;1.40;;
77010;SDS011;65945;53.148;17.956;2023-08-21T11:20:00;9.60;;;1.30;;
77010;SDS011;65945;53.148;17.956;2023-08-21T11:22:28;4.10;;;1.40;;
77010;SDS011;65945;53.148;17.956;2023-08-21T11:24:56;15.50;;;2.20;;
77010;SDS011;65945;53.148;17.956;2023-08-21T11:27:23;3.50;;;1.30;;
77010;SDS011;65945;53.148;17.956;2023-08-21T11:29:50;4.70;;;1.40;;
77010;SDS011;65945;53.148;17.956;2023-08-21T11:32:21;13.60;;;1.30;;
77010;SDS011;65945;53.148;17.956;2023-08-21T11:34:50;4.90;;;1.50;;
77010;SDS011;65945;53.148;17.956;2023-08-21T11:37:17;5.00;;;1.20;;
77010;SDS011;65945;53.148;17.956;2023-08-21T11:39:52;4.90;;;1.40;;
77010;SDS011;65945;53.148;17.956;2023-08-21T11:42:21;6.60;;;1.90;;
77010;SDS011;65945;53.148;17.956;2023-08-21T11:44:55;4.50;;;1.60;;
77010;SDS011;65945;53.148;17.956;2023-08-21T11:47:22;7.00;;;1.40;;
77010;SDS011;65945;53.148;17.956;2023-08-21T11:49:50;20.30;;;2.50;;
77010;SDS011;65945;53.148;17.956;2023-08-21T11:52:18;4.40;;;1.40;;
77010;SDS011;65945;53.148;17.956;2023-08-21T11:54:50;3.90;;;1.30;;
77010;SDS011;65945;53.148;17.956;2023-08-21T11:57:18;4.10;;;1.20;;
77010;SDS011;65945;53.148;17.956;2023-08-21T12:02:19;5.60;;;1.20;;
77010;SDS011;65945;53.148;17.956;2023-08-21T12:05:04;6.20;;;1.50;;
77010;SDS011;65945;53.148;17.956;2023-08-21T12:07:34;5.40;;;1.00;;
77010;SDS011;65945;53.148;17.956;2023-08-21T12:10:01;5.00;;;1.30;;
77010;SDS011;65945;53.148;17.956;2023-08-21T12:12:28;5.90;;;1.30;;
77010;SDS011;65945;53.148;17.956;2023-08-21T12:14:54;6.10;;;1.30;;
77010;SDS011;65945;53.148;17.956;2023-08-21T12:17:21;6.80;;;1.20;;
77010;SDS011;65945;53.148;17.956;2023-08-21T12:19:47;32.30;;;2.70;;
77010;SDS011;65945;53.148;17.956;2023-08-21T12:22:14;9.60;;;1.60;;
77010;SDS011;65945;53.148;17.956;2023-08-21T12:24:41;15.30;;;2.10;;
77010;SDS011;65945;53.148;17.956;2023-08-21T12:27:07;6.10;;;1.50;;
77010;SDS011;65945;53.148;17.956;2023-08-21T12:29:34;4.20;;;1.40;;
77010;SDS011;65945;53.148;17.956;2023-08-21T12:32:01;8.00;;;1.90;;
77010;SDS011;65945;53.148;17.956;2023-08-21T12:34:29;8.70;;;1.60;;
77010;SDS011;65945;53.148;17.956;2023-08-21T12:36:56;4.10;;;1.30;;
77010;SDS011;65945;53.148;17.956;2023-08-21T12:39:22;6.00;;;1.80;;
77010;SDS011;65945;53.148;17.956;2023-08-21T12:41:49;4.50;;;1.50;;
77010;SDS011;65945;53.148;17.956;2023-08-21T12:44:16;5.00;;;1.30;;
77010;SDS011;65945;53.148;17.956;2023-08-21T12:46:42;5.20;;;1.50;;
77010;SDS011;65945;53.148;17.956;2023-08-21T12:49:09;3.50;;;1.50;;
77010;SDS011;65945;53.148;17.956;2023-08-21T12:51:35;4.10;;;1.60;;
77010;SDS011;65945;53.148;17.956;2023-08-21T12:54:02;4.80;;;1.90;;
77010;SDS011;65945;53.148;17.956;2023-08-21T12:56:30;13.30;;;1.90;;
77010;SDS011;65945;53.148;17.956;2023-08-21T12:58:56;5.90;;;1.60;;
77010;SDS011;65945;53.148;17.956;2023-08-21T13:01:23;5.30;;;1.60;;
77010;SDS011;65945;53.148;17.956;2023-08-21T13:03:50;9.60;;;1.90;;
77010;SDS011;65945;53.148;17.956;2023-08-21T13:06:17;6.70;;;1.90;;
77010;SDS011;65945;53.148;17.956;2023-08-21T13:08:44;5.90;;;2.10;;
77010;SDS011;65945;53.148;17.956;2023-08-21T13:11:10;5.20;;;1.70;;
77010;SDS011;65945;53.148;17.956;2023-08-21T13:13:37;5.20;;;1.90;;
77010;SDS011;65945;53.148;17.956;2023-08-21T13:16:03;4.70;;;1.40;;
77010;SDS011;65945;53.148;17.956;2023-08-21T13:18:30;9.00;;;1.80;;
77010;SDS011;65945;53.148;17.956;2023-08-21T13:20:57;12.30;;;1.60;;
77010;SDS011;65945;53.148;17.956;2023-08-21T13:23:24;7.60;;;1.90;;
77010;SDS011;65945;53.148;17.956;2023-08-21T13:25:50;7.90;;;1.60;;
77010;SDS011;65945;53.148;17.956;2023-08-21T13:28:17;6.10;;;1.90;;
77010;SDS011;65945;53.148;17.956;2023-08-21T13:30:43;6.50;;;2.00;;
77010;SDS011;65945;53.148;17.956;2023-08-21T13:33:10;6.20;;;1.60;;
77010;SDS011;65945;53.148;17.956;2023-08-21T13:35:36;5.70;;;1.80;;
77010;SDS011;65945;53.148;17.956;2023-08-21T13:38:03;17.10;;;2.30;;
77010;SDS011;65945;53.148;17.956;2023-08-21T13:40:32;4.40;;;1.70;;
77010;SDS011;65945;53.148;17.956;2023-08-21T13:42:58;5.30;;;1.80;;
77010;SDS011;65945;53.148;17.956;2023-08-21T13:45:26;6.30;;;1.60;;
77010;SDS011;65945;53.148;17.956;2023-08-21T13:47:53;7.00;;;1.80;;
77010;SDS011;65945;53.148;17.956;2023-08-21T13:50:19;9.30;;;2.20;;
77010;SDS011;65945;53.148;17.956;2023-08-21T13:52:46;3.30;;;1.60;;
77010;SDS011;65945;53.148;17.956;2023-08-21T13:55:14;8.20;;;1.90;;
77010;SDS011;65945;53.148;17.956;2023-08-21T13:57:41;5.30;;;1.80;;
77010;SDS011;65945;53.148;17.956;2023-08-21T14:00:09;12.00;;;2.20;;
77010;SDS011;65945;53.148;17.956;2023-08-21T14:02:40;3.70;;;1.70;;
77010;SDS011;65945;53.148;17.956;2023-08-21T14:05:08;6.80;;;1.70;;
77010;SDS011;65945;53.148;17.956;2023-08-21T14:07:36;3.50;;;1.70;;
77010;SDS011;65945;53.148;17.956;2023-08-21T14:10:03;3.50;;;1.50;;
77010;SDS011;65945;53.148;17.956;2023-08-21T14:12:33;4.40;;;1.90;;
77010;SDS011;65945;53.148;17.956;2023-08-21T14:15:00;6.30;;;1.60;;
77010;SDS011;65945;53.148;17.956;2023-08-21T14:17:27;4.00;;;1.50;;
77010;SDS011;65945;53.148;17.956;2023-08-21T14:19:54;5.40;;;1.50;;
77010;SDS011;65945;53.148;17.956;2023-08-21T14:22:21;5.80;;;1.50;;
77010;SDS011;65945;53.148;17.956;2023-08-21T14:24:48;9.30;;;2.00;;
77010;SDS011;65945;53.148;17.956;2023-08-21T14:27:16;7.80;;;1.60;;
77010;SDS011;65945;53.148;17.956;2023-08-21T14:29:43;4.80;;;1.80;;
77010;SDS011;65945;53.148;17.956;2023-08-21T14:32:10;7.00;;;2.00;;
77010;SDS011;65945;53.148;17.956;2023-08-21T14:34:37;6.60;;;1.60;;
77010;SDS011;65945;53.148;17.956;2023-08-21T14:37:04;7.90;;;1.90;;
77010;SDS011;65945;53.148;17.956;2023-08-21T14:39:31;4.50;;;1.80;;
77010;SDS011;65945;53.148;17.956;2023-08-21T14:41:58;3.20;;;1.40;;
77010;SDS011;65945;53.148;17.956;2023-08-21T14:44:25;4.90;;;2.00;;
77010;SDS011;65945;53.148;17.956;2023-08-21T14:46:52;6.60;;;2.00;;
77010;SDS011;65945;53.148;17.956;2023-08-21T14:49:21;3.90;;;1.30;;
77010;SDS011;65945;53.148;17.956;2023-08-21T14:51:48;8.10;;;1.80;;
77010;SDS011;65945;53.148;17.956;2023-08-21T14:54:15;4.60;;;1.70;;
77010;SDS011;65945;53.148;17.956;2023-08-21T14:56:41;5.50;;;1.50;;